createdAt,value
2018-12-22T00:00:20.979Z,8.60
2018-12-22T00:02:53.396Z,8.60
2018-12-22T00:05:25.906Z,8.60
2018-12-22T00:07:58.604Z,8.60
2018-12-22T00:10:31.589Z,8.60
2018-12-22T00:13:04.138Z,8.60
2018-12-22T00:15:36.897Z,8.60
2018-12-22T00:18:08.897Z,8.60
2018-12-22T00:20:40.945Z,8.60
2018-12-22T00:23:13.647Z,8.60
2018-12-22T00:25:46.461Z,8.60
2018-12-22T00:28:22.327Z,8.60
2018-12-22T00:30:54.156Z,8.60
2018-12-22T00:33:29.268Z,8.60
2018-12-22T00:36:06.412Z,8.60
2018-12-22T00:38:52.341Z,8.60
2018-12-22T00:41:24.917Z,8.60
2018-12-22T00:43:57.668Z,8.70
2018-12-22T00:46:30.128Z,8.70
2018-12-22T00:49:02.087Z,8.60
2018-12-22T00:51:35.021Z,8.60
2018-12-22T00:54:07.071Z,8.60
2018-12-22T00:56:37.737Z,8.50
2018-12-22T00:59:10.578Z,8.50
2018-12-22T01:01:42.486Z,8.40
2018-12-22T01:04:15.367Z,8.40
2018-12-22T01:06:48.194Z,8.40
2018-12-22T01:09:21.823Z,8.40
2018-12-22T01:11:54.684Z,8.40
2018-12-22T01:14:28.187Z,8.40
2018-12-22T01:17:00.577Z,8.40
2018-12-22T01:19:33.517Z,8.40
2018-12-22T01:22:06.359Z,8.40
2018-12-22T01:24:38.337Z,8.40
2018-12-22T01:27:11.149Z,8.40
2018-12-22T01:29:43.885Z,8.40
2018-12-22T01:32:15.767Z,8.40
2018-12-22T01:34:48.679Z,8.40
2018-12-22T01:40:28.137Z,8.50
2018-12-22T01:43:06.030Z,8.50
2018-12-22T01:45:38.850Z,8.50
2018-12-22T01:48:11.457Z,8.50
2018-12-22T01:50:44.118Z,8.50
2018-12-22T01:53:17.029Z,8.50
2018-12-22T01:55:50.035Z,8.60
2018-12-22T01:58:22.404Z,8.50
2018-12-22T02:00:55.137Z,8.50
2018-12-22T02:03:28.697Z,8.50
2018-12-22T02:06:00.782Z,8.50
2018-12-22T02:08:33.589Z,8.50
2018-12-22T02:11:06.305Z,8.50
2018-12-22T02:13:39.090Z,8.50
2018-12-22T02:16:11.020Z,8.50
2018-12-22T02:18:43.795Z,8.50
2018-12-22T02:21:15.677Z,8.60
2018-12-22T02:23:47.666Z,8.60
2018-12-22T02:26:20.419Z,8.50
2018-12-22T02:28:56.789Z,8.60
2018-12-22T02:31:29.257Z,8.60
2018-12-22T02:34:02.006Z,8.50
2018-12-22T02:36:34.659Z,8.50
2018-12-22T02:39:07.495Z,8.50
2018-12-22T02:41:41.140Z,8.50
2018-12-22T02:44:13.100Z,8.50
2018-12-22T02:46:43.879Z,8.60
2018-12-22T02:49:18.103Z,8.60
2018-12-22T02:51:50.465Z,8.60
2018-12-22T02:54:22.359Z,8.60
2018-12-22T02:56:55.130Z,8.50
2018-12-22T02:59:27.976Z,8.50
2018-12-22T03:01:59.879Z,8.50
2018-12-22T03:04:31.722Z,8.50
2018-12-22T03:07:03.838Z,8.50
2018-12-22T03:09:36.403Z,8.50
2018-12-22T03:12:09.240Z,8.60
2018-12-22T03:14:41.972Z,8.60
2018-12-22T03:17:14.754Z,8.60
2018-12-22T03:19:44.871Z,8.70
2018-12-22T03:22:17.446Z,8.60
2018-12-22T03:24:50.152Z,8.70
2018-12-22T03:27:22.040Z,8.60
2018-12-22T03:29:54.170Z,8.60
2018-12-22T03:32:26.896Z,8.60
2018-12-22T03:34:59.793Z,8.70
2018-12-22T03:37:32.584Z,8.60
2018-12-22T03:40:07.420Z,8.60
2018-12-22T03:42:39.245Z,8.60
2018-12-22T03:45:11.130Z,8.60
2018-12-22T03:47:43.904Z,8.60
2018-12-22T03:50:15.989Z,8.60
2018-12-22T03:57:48.826Z,8.70
2018-12-22T04:02:50.725Z,8.70
2018-12-22T04:13:40.283Z,8.70
2018-12-22T04:16:12.642Z,8.70
2018-12-22T04:18:43.119Z,8.80
2018-12-22T04:24:28.746Z,8.80
2018-12-22T04:27:13.642Z,8.80
2018-12-22T04:29:47.632Z,8.80
2018-12-22T04:32:19.937Z,8.80
2018-12-22T04:34:52.644Z,8.80
2018-12-22T04:37:25.247Z,8.80
2018-12-22T04:39:58.089Z,8.90
2018-12-22T04:42:30.859Z,8.90
2018-12-22T04:45:03.747Z,8.90
2018-12-22T04:47:36.966Z,8.90
2018-12-22T04:50:09.421Z,8.90
2018-12-22T04:52:41.501Z,8.90
2018-12-22T04:55:12.361Z,8.90
2018-12-22T04:57:44.260Z,9.00
2018-12-22T05:00:16.898Z,9.00
2018-12-22T05:02:49.778Z,9.00
2018-12-22T05:05:22.236Z,9.00
2018-12-22T05:07:55.134Z,9.00
2018-12-22T05:10:27.181Z,9.00
2018-12-22T05:12:59.829Z,9.10
2018-12-22T05:15:34.875Z,9.10
2018-12-22T05:18:08.394Z,9.10
2018-12-22T05:20:40.995Z,9.10
2018-12-22T05:23:13.797Z,9.20
2018-12-22T05:25:45.813Z,9.20
2018-12-22T05:28:18.608Z,9.30
2018-12-22T05:30:51.349Z,9.30
2018-12-22T05:33:23.274Z,9.30
2018-12-22T05:35:55.338Z,9.40
2018-12-22T05:38:27.878Z,9.40
2018-12-22T05:41:02.104Z,9.30
2018-12-22T05:46:48.622Z,9.40
2018-12-22T05:49:21.220Z,9.40
2018-12-22T05:51:55.583Z,9.30
2018-12-22T05:54:27.952Z,9.30
2018-12-22T05:57:00.994Z,9.30
2018-12-22T05:59:33.497Z,9.30
2018-12-22T06:02:05.512Z,9.30
2018-12-22T06:04:38.201Z,9.30
2018-12-22T06:07:10.046Z,9.30
2018-12-22T06:09:42.148Z,9.30
2018-12-22T06:12:14.066Z,9.40
2018-12-22T06:14:47.066Z,9.50
2018-12-22T06:17:20.191Z,9.50
2018-12-22T06:19:52.717Z,9.50
2018-12-22T06:22:25.436Z,9.50
2018-12-22T06:24:58.738Z,9.50
2018-12-22T06:27:31.462Z,9.50
2018-12-22T06:30:09.199Z,9.50
2018-12-22T06:32:39.146Z,9.50
2018-12-22T06:35:11.229Z,9.50
2018-12-22T06:37:43.893Z,9.50
2018-12-22T06:40:16.684Z,9.60
2018-12-22T06:46:03.095Z,9.60
2018-12-22T06:48:41.794Z,9.60
2018-12-22T06:51:27.066Z,9.60
2018-12-22T06:54:05.100Z,9.60
2018-12-22T06:56:38.791Z,9.70
2018-12-22T06:59:11.593Z,9.60
2018-12-22T07:01:47.068Z,9.60
2018-12-22T07:04:28.873Z,9.60
2018-12-22T07:07:05.458Z,9.70
2018-12-22T07:09:37.266Z,9.60
2018-12-22T07:12:22.394Z,9.50
2018-12-22T07:14:59.988Z,9.40
2018-12-22T07:17:32.190Z,9.50
2018-12-22T07:20:10.851Z,9.50
2018-12-22T07:22:44.298Z,9.50
2018-12-22T07:25:16.458Z,9.50
2018-12-22T07:27:48.499Z,9.60
2018-12-22T07:30:26.237Z,9.60
2018-12-22T07:32:57.152Z,9.60
2018-12-22T07:35:29.553Z,9.70
2018-12-22T07:38:02.389Z,9.70
2018-12-22T07:40:34.353Z,9.70
2018-12-22T07:43:05.331Z,9.70
2018-12-22T07:45:37.976Z,9.70
2018-12-22T07:48:10.998Z,9.80
2018-12-22T07:50:44.102Z,9.80
2018-12-22T07:53:16.677Z,9.80
2018-12-22T07:55:49.405Z,9.80
2018-12-22T07:58:22.174Z,9.80
2018-12-22T08:00:54.955Z,9.90
2018-12-22T08:03:27.864Z,9.90
2018-12-22T08:06:00.570Z,9.90
2018-12-22T08:08:38.425Z,9.90
2018-12-22T08:11:10.663Z,10.00
2018-12-22T08:13:42.588Z,10.00
2018-12-22T08:16:15.433Z,10.00
2018-12-22T08:18:48.265Z,10.00
2018-12-22T08:21:20.790Z,10.00
2018-12-22T08:23:55.100Z,10.00
2018-12-22T08:26:27.583Z,10.10
2018-12-22T08:29:00.763Z,10.10
2018-12-22T08:31:33.059Z,10.10
2018-12-22T08:34:06.006Z,10.10
2018-12-22T08:36:39.053Z,10.10
2018-12-22T08:39:11.613Z,10.20
2018-12-22T08:41:43.553Z,10.20
2018-12-22T08:44:16.283Z,10.30
2018-12-22T08:46:47.868Z,10.30
2018-12-22T08:49:21.379Z,10.20
2018-12-22T08:51:53.908Z,10.20
2018-12-22T08:54:26.806Z,10.20
2018-12-22T08:56:59.585Z,10.20
2018-12-22T08:59:32.550Z,10.20
2018-12-22T09:05:19.218Z,10.20
2018-12-22T09:07:54.855Z,10.20
2018-12-22T09:10:31.960Z,10.20
2018-12-22T09:13:20.892Z,10.30
2018-12-22T09:15:56.100Z,10.40
2018-12-22T09:18:28.547Z,10.40
2018-12-22T09:21:07.340Z,10.50
2018-12-22T09:23:46.305Z,10.50
2018-12-22T09:26:32.331Z,10.50
2018-12-22T09:29:06.737Z,10.60
2018-12-22T09:31:45.988Z,10.60
2018-12-22T09:34:16.634Z,10.70
2018-12-22T09:39:55.847Z,10.80
2018-12-22T09:42:34.925Z,10.80
2018-12-22T09:45:08.955Z,10.90
2018-12-22T09:47:54.945Z,11.00
2018-12-22T09:50:34.535Z,11.10
2018-12-22T09:53:10.380Z,11.10
2018-12-22T09:55:52.312Z,11.10
2018-12-22T09:58:24.470Z,11.10
2018-12-22T10:01:09.238Z,11.10
2018-12-22T10:03:39.899Z,11.20
2018-12-22T10:06:25.414Z,11.20
2018-12-22T10:09:06.587Z,11.20
2018-12-22T10:11:44.027Z,11.30
2018-12-22T10:14:30.460Z,11.30
2018-12-22T10:17:04.938Z,11.30
2018-12-22T10:19:37.328Z,11.30
2018-12-22T10:22:09.461Z,11.30
2018-12-22T10:24:42.436Z,11.30
2018-12-22T10:27:14.377Z,11.30
2018-12-22T10:29:47.247Z,11.30
2018-12-22T10:32:19.546Z,11.40
2018-12-22T10:34:52.079Z,11.30
2018-12-22T10:37:24.810Z,11.30
2018-12-22T10:39:56.912Z,11.40
2018-12-22T10:42:29.797Z,11.30
2018-12-22T10:45:02.544Z,11.40
2018-12-22T10:47:35.332Z,11.40
2018-12-22T10:50:07.662Z,11.40
2018-12-22T10:52:40.105Z,11.40
2018-12-22T10:55:12.237Z,11.40
2018-12-22T10:57:45.018Z,11.40
2018-12-22T11:00:18.389Z,11.50
2018-12-22T11:02:51.202Z,11.60
2018-12-22T11:05:24.090Z,11.50
2018-12-22T11:07:56.355Z,11.60
2018-12-22T11:10:28.771Z,11.70
2018-12-22T11:13:02.282Z,11.80
2018-12-22T11:15:41.276Z,11.80
2018-12-22T11:18:14.086Z,11.80
2018-12-22T11:20:46.482Z,11.80
2018-12-22T11:23:33.799Z,11.90
2018-12-22T11:38:44.342Z,11.80
2018-12-22T11:41:17.505Z,11.80
2018-12-22T11:43:53.117Z,11.80
2018-12-22T11:46:25.547Z,11.80
2018-12-22T11:49:13.402Z,11.70
2018-12-22T11:51:48.804Z,11.70
2018-12-22T11:54:23.218Z,11.70
2018-12-22T11:57:08.742Z,11.70
2018-12-22T11:59:48.709Z,11.80
2018-12-22T12:02:19.079Z,11.80
2018-12-22T12:04:58.627Z,12.00
2018-12-22T12:07:43.777Z,12.10
2018-12-22T12:10:15.967Z,12.20
2018-12-22T12:12:48.783Z,12.40
2018-12-22T12:15:30.392Z,12.40
2018-12-22T12:20:11.985Z,12.30
2018-12-22T12:22:58.467Z,12.30
2018-12-22T12:25:44.330Z,12.30
2018-12-22T12:28:20.688Z,12.30
2018-12-22T12:30:53.102Z,12.40
2018-12-22T12:33:25.402Z,12.60
2018-12-22T12:35:57.453Z,12.70
2018-12-22T12:38:30.337Z,12.90
2018-12-22T12:41:03.418Z,12.80
2018-12-22T12:43:36.253Z,12.60
2018-12-22T12:46:09.284Z,12.60
2018-12-22T12:48:47.019Z,12.50
2018-12-22T12:51:25.100Z,12.40
2018-12-22T12:53:57.855Z,12.40
2018-12-22T12:56:30.850Z,12.40
2018-12-22T12:59:03.193Z,12.20
2018-12-22T13:01:35.225Z,12.20
2018-12-22T13:04:08.085Z,12.10
2018-12-22T13:06:47.869Z,12.10
2018-12-22T13:09:26.870Z,12.00
2018-12-22T13:12:08.318Z,12.00
2018-12-22T13:14:39.487Z,12.10
2018-12-22T13:17:13.082Z,12.30
2018-12-22T13:19:45.340Z,12.40
2018-12-22T13:22:18.203Z,12.40
2018-12-22T13:24:51.138Z,12.30
2018-12-22T13:27:37.293Z,12.30
2018-12-22T13:30:23.140Z,12.20
2018-12-22T13:33:00.925Z,12.10
2018-12-22T13:35:45.094Z,12.00
2018-12-22T13:38:33.305Z,11.90
2018-12-22T13:41:20.837Z,11.80
2018-12-22T13:44:06.417Z,11.80
2018-12-22T13:46:44.682Z,11.80
2018-12-22T13:49:18.306Z,11.80
2018-12-22T13:51:51.065Z,11.80
2018-12-22T13:54:26.240Z,11.70
2018-12-22T13:57:04.451Z,11.70
2018-12-22T13:59:50.779Z,11.70
2018-12-22T14:02:23.443Z,11.70
2018-12-22T14:05:01.303Z,11.60
2018-12-22T14:07:33.578Z,11.60
2018-12-22T14:10:10.168Z,11.70
2018-12-22T14:12:42.572Z,11.60
2018-12-22T14:15:18.998Z,11.60
2018-12-22T14:18:30.623Z,11.70
2018-12-22T14:21:03.720Z,11.60
2018-12-22T14:24:23.808Z,11.60
2018-12-22T14:26:56.450Z,11.60
2018-12-22T14:29:29.358Z,11.60
2018-12-22T14:32:01.726Z,11.50
2018-12-22T14:34:40.663Z,11.60
2018-12-22T14:37:19.728Z,11.50
2018-12-22T14:39:51.841Z,11.50
2018-12-22T14:42:29.560Z,11.50
2018-12-22T14:45:15.673Z,11.50
2018-12-22T14:47:48.659Z,11.50
2018-12-22T14:50:21.724Z,11.40
2018-12-22T14:53:01.060Z,11.50
2018-12-22T14:55:35.083Z,11.40
2018-12-22T14:58:18.396Z,11.40
2018-12-22T15:00:54.180Z,11.40
2018-12-22T15:03:27.716Z,11.40
2018-12-22T15:06:02.249Z,11.40
2018-12-22T15:08:34.686Z,11.30
2018-12-22T15:11:07.891Z,11.30
2018-12-22T15:13:40.566Z,11.30
2018-12-22T15:16:13.554Z,11.30
2018-12-22T15:18:48.903Z,11.30
2018-12-22T15:21:34.462Z,11.30
2018-12-22T15:24:12.293Z,11.30
2018-12-22T15:26:56.382Z,11.30
2018-12-22T15:29:39.936Z,11.30
2018-12-22T15:32:15.310Z,11.30
2018-12-22T15:34:51.332Z,11.20
2018-12-22T15:37:25.843Z,11.20
2018-12-22T15:39:59.353Z,11.20
2018-12-22T15:42:44.315Z,11.20
2018-12-22T15:45:21.973Z,11.30
2018-12-22T15:47:57.787Z,11.20
2018-12-22T15:50:43.407Z,11.20
2018-12-22T15:53:22.554Z,11.20
2018-12-22T15:55:59.931Z,11.20
2018-12-22T15:58:52.055Z,11.20
2018-12-22T16:01:24.663Z,11.20
2018-12-22T16:03:56.642Z,11.10
2018-12-22T16:06:28.084Z,11.10
2018-12-22T16:08:58.439Z,11.20
2018-12-22T16:11:30.984Z,11.20
2018-12-22T16:14:03.716Z,11.20
2018-12-22T16:16:36.690Z,11.20
2018-12-22T16:19:09.448Z,11.10
2018-12-22T16:21:47.030Z,11.10
2018-12-22T16:24:25.814Z,11.10
2018-12-22T16:27:00.214Z,11.20
2018-12-22T16:29:39.787Z,11.10
2018-12-22T16:32:15.767Z,11.20
2018-12-22T16:34:48.098Z,11.20
2018-12-22T16:37:20.068Z,11.20
2018-12-22T16:40:07.160Z,11.20
2018-12-22T16:42:44.633Z,11.20
2018-12-22T16:45:16.844Z,11.20
2018-12-22T16:47:49.550Z,11.20
2018-12-22T16:50:21.669Z,11.20
2018-12-22T16:52:59.010Z,11.20
2018-12-22T16:55:44.295Z,11.20
2018-12-22T16:58:37.047Z,11.10
2018-12-22T17:01:25.082Z,11.10
2018-12-22T17:04:11.871Z,11.10
2018-12-22T17:11:58.375Z,11.10
2018-12-22T17:19:34.085Z,11.10
2018-12-22T17:22:14.833Z,11.10
2018-12-22T17:25:04.059Z,11.10
2018-12-22T17:27:37.263Z,11.10
2018-12-22T17:30:09.583Z,11.10
2018-12-22T17:32:43.251Z,11.10
2018-12-22T17:35:16.510Z,11.10
2018-12-22T17:37:50.822Z,11.10
2018-12-22T17:40:23.293Z,11.10
2018-12-22T17:42:57.654Z,11.10
2018-12-22T17:45:31.847Z,11.10
2018-12-22T17:48:11.125Z,11.10
2018-12-22T17:53:57.196Z,11.10
2018-12-22T17:56:32.493Z,11.10
2018-12-22T17:59:08.901Z,11.00
2018-12-22T18:01:54.358Z,11.10
2018-12-22T18:04:27.166Z,11.00
2018-12-22T18:07:00.063Z,11.10
2018-12-22T18:09:32.074Z,11.00
2018-12-22T18:12:04.305Z,11.00
2018-12-22T18:14:37.071Z,11.00
2018-12-22T18:17:12.158Z,11.10
2018-12-22T18:19:42.793Z,11.00
2018-12-22T18:22:15.716Z,11.10
2018-12-22T18:24:45.826Z,11.10
2018-12-22T18:27:17.836Z,11.10
2018-12-22T18:29:49.968Z,11.10
2018-12-22T18:32:22.145Z,11.10
2018-12-22T18:34:55.258Z,11.10
2018-12-22T18:37:27.680Z,11.10
2018-12-22T18:40:00.173Z,11.10
2018-12-22T18:42:33.061Z,11.10
2018-12-22T18:45:11.507Z,11.10
2018-12-22T18:47:56.675Z,11.10
2018-12-22T18:50:29.449Z,11.00
2018-12-22T18:53:08.289Z,11.10
2018-12-22T18:55:42.086Z,11.00
2018-12-22T18:58:16.763Z,11.00
2018-12-22T19:00:51.506Z,11.10
2018-12-22T19:03:26.329Z,11.10
2018-12-22T19:06:01.358Z,11.00
2018-12-22T19:08:35.264Z,11.00
2018-12-22T19:11:11.373Z,11.00
2018-12-22T19:13:43.762Z,11.00
2018-12-22T19:16:20.806Z,11.00
2018-12-22T19:18:52.161Z,11.00
2018-12-22T19:21:43.718Z,11.00
2018-12-22T19:24:16.414Z,11.00
2018-12-22T19:26:48.826Z,11.00
2018-12-22T19:29:21.470Z,11.00
2018-12-22T19:31:56.074Z,11.00
2018-12-22T19:34:27.009Z,11.00
2018-12-22T19:37:01.764Z,11.00
2018-12-22T19:39:36.452Z,11.00
2018-12-22T19:42:06.853Z,11.00
2018-12-22T19:44:42.965Z,11.00
2018-12-22T19:47:18.298Z,11.00
2018-12-22T19:49:50.233Z,11.00
2018-12-22T19:52:23.736Z,11.00
2018-12-22T19:54:52.683Z,11.00
2018-12-22T19:57:27.771Z,11.00
2018-12-22T20:00:05.995Z,11.00
2018-12-22T20:02:38.856Z,11.00
2018-12-22T20:05:09.685Z,11.00
2018-12-22T20:07:43.648Z,11.00
2018-12-22T20:10:17.256Z,11.10
2018-12-22T20:12:50.126Z,11.00
2018-12-22T20:15:22.292Z,11.00
2018-12-22T20:17:55.537Z,11.00
2018-12-22T20:20:29.669Z,11.00
2018-12-22T20:23:12.665Z,11.00
2018-12-22T20:25:45.449Z,11.00
2018-12-22T20:28:20.735Z,11.00
2018-12-22T20:30:53.893Z,11.00
2018-12-22T20:33:28.710Z,11.00
2018-12-22T20:36:00.898Z,11.00
2018-12-22T20:38:34.857Z,11.00
2018-12-22T20:41:05.895Z,11.00
2018-12-22T20:43:39.793Z,10.90
2018-12-22T20:46:13.053Z,10.90
2018-12-22T20:48:52.157Z,11.00
2018-12-22T20:51:24.919Z,11.00
2018-12-22T20:53:57.995Z,11.00
2018-12-22T20:56:30.168Z,10.90
2018-12-22T20:59:03.105Z,11.00
2018-12-22T21:01:36.062Z,11.00
2018-12-22T21:04:21.869Z,11.00
2018-12-22T21:06:54.364Z,11.00
2018-12-22T21:09:32.463Z,10.90
2018-12-22T21:12:18.318Z,10.90
2018-12-22T21:14:51.986Z,10.90
2018-12-22T21:17:24.650Z,10.90
2018-12-22T21:20:03.569Z,10.90
2018-12-22T21:22:36.822Z,11.00
2018-12-22T21:25:22.726Z,11.00
2018-12-22T21:27:55.067Z,10.90
2018-12-22T21:30:26.031Z,10.90
2018-12-22T21:32:58.843Z,10.90
2018-12-22T21:35:30.212Z,10.80
2018-12-22T21:38:03.029Z,10.80
2018-12-22T21:40:36.181Z,10.80
2018-12-22T21:43:10.806Z,10.80
2018-12-22T21:45:48.021Z,10.80
2018-12-22T21:48:20.343Z,10.80
2018-12-22T21:50:58.148Z,10.80
2018-12-22T21:53:31.573Z,10.80
2018-12-22T21:56:08.519Z,10.80
2018-12-22T21:58:56.378Z,10.80
2018-12-22T22:01:29.374Z,10.80
2018-12-22T22:04:05.582Z,10.80
2018-12-22T22:06:37.028Z,10.80
2018-12-22T22:09:14.384Z,10.80
2018-12-22T22:11:47.158Z,10.70
2018-12-22T22:14:19.216Z,10.80
2018-12-22T22:16:53.497Z,10.80
2018-12-22T22:19:26.221Z,10.80
2018-12-22T22:22:03.884Z,10.80
2018-12-22T22:24:53.049Z,10.80
2018-12-22T22:27:23.788Z,10.70
2018-12-22T22:29:58.293Z,10.80
2018-12-22T22:32:31.738Z,10.90
2018-12-22T22:35:05.686Z,10.90
2018-12-22T22:37:38.364Z,10.80
2018-12-22T22:40:13.622Z,10.80
2018-12-22T22:42:46.476Z,10.90
2018-12-22T22:45:19.266Z,11.00
2018-12-22T22:47:52.932Z,10.90
2018-12-22T22:50:25.097Z,10.80
2018-12-22T22:53:06.107Z,10.80
2018-12-22T22:55:37.170Z,10.80
2018-12-22T22:58:18.536Z,10.90
2018-12-22T23:00:56.279Z,11.10
2018-12-22T23:03:41.744Z,11.00
2018-12-22T23:06:14.641Z,10.90
2018-12-22T23:08:47.421Z,10.80
2018-12-22T23:11:26.061Z,10.80
2018-12-22T23:14:11.395Z,10.70
2018-12-22T23:16:44.313Z,10.70
2018-12-22T23:19:15.059Z,10.60
2018-12-22T23:21:52.688Z,10.70
2018-12-22T23:24:25.156Z,10.80
2018-12-22T23:26:57.541Z,10.80
2018-12-22T23:29:33.803Z,10.60
2018-12-22T23:32:05.858Z,10.60
2018-12-22T23:34:38.040Z,10.50
2018-12-22T23:37:10.877Z,10.50
2018-12-22T23:39:43.935Z,10.50
2018-12-22T23:42:16.755Z,10.50
2018-12-22T23:44:49.793Z,10.50
2018-12-22T23:47:21.722Z,10.50
2018-12-22T23:50:07.583Z,10.50
2018-12-22T23:52:43.295Z,10.50
2018-12-22T23:55:18.395Z,10.50
2018-12-22T23:57:49.323Z,10.50
